sensor_id;sensor_type;location;lat;lon;timestamp;temperature;humidity
76102;SHT30;64830;46.910;6.354;2023-03-23T00:00:59;11.69;56.84
76102;SHT30;64830;46.910;6.354;2023-03-23T00:03:24;11.67;57.15
76102;SHT30;64830;46.910;6.354;2023-03-23T00:05:51;11.66;57.01
76102;SHT30;64830;46.910;6.354;2023-03-23T00:08:18;11.63;57.20
76102;SHT30;64830;46.910;6.354;2023-03-23T00:10:48;11.63;57.16
76102;SHT30;64830;46.910;6.354;2023-03-23T00:13:13;11.63;56.97
76102;SHT30;64830;46.910;6.354;2023-03-23T00:15:44;11.61;56.81
76102;SHT30;64830;46.910;6.354;2023-03-23T00:18:10;11.61;56.78
76102;SHT30;64830;46.910;6.354;2023-03-23T00:20:47;11.59;56.77
76102;SHT30;64830;46.910;6.354;2023-03-23T00:23:15;11.55;56.89
76102;SHT30;64830;46.910;6.354;2023-03-23T00:25:45;11.56;57.00
76102;SHT30;64830;46.910;6.354;2023-03-23T00:28:11;11.55;57.24
76102;SHT30;64830;46.910;6.354;2023-03-23T00:30:38;11.58;57.32
76102;SHT30;64830;46.910;6.354;2023-03-23T00:33:04;11.59;57.15
76102;SHT30;64830;46.910;6.354;2023-03-23T00:35:29;11.62;57.19
76102;SHT30;64830;46.910;6.354;2023-03-23T00:37:56;11.65;57.17
76102;SHT30;64830;46.910;6.354;2023-03-23T00:40:24;11.67;57.34
76102;SHT30;64830;46.910;6.354;2023-03-23T00:42:49;11.69;57.43
76102;SHT30;64830;46.910;6.354;2023-03-23T00:45:15;11.72;57.40
76102;SHT30;64830;46.910;6.354;2023-03-23T00:47:41;11.73;57.53
76102;SHT30;64830;46.910;6.354;2023-03-23T00:50:12;11.77;57.74
76102;SHT30;64830;46.910;6.354;2023-03-23T00:52:39;11.81;57.65
76102;SHT30;64830;46.910;6.354;2023-03-23T00:55:06;11.81;57.88
76102;SHT30;64830;46.910;6.354;2023-03-23T00:57:31;11.81;57.91
76102;SHT30;64830;46.910;6.354;2023-03-23T00:59:57;11.83;58.13
76102;SHT30;64830;46.910;6.354;2023-03-23T01:02:22;11.81;58.17
76102;SHT30;64830;46.910;6.354;2023-03-23T01:04:50;11.83;58.25
76102;SHT30;64830;46.910;6.354;2023-03-23T01:07:20;11.81;58.25
76102;SHT30;64830;46.910;6.354;2023-03-23T01:09:46;11.83;58.20
76102;SHT30;64830;46.910;6.354;2023-03-23T01:12:13;11.84;58.31
76102;SHT30;64830;46.910;6.354;2023-03-23T01:14:40;11.83;58.27
76102;SHT30;64830;46.910;6.354;2023-03-23T01:17:06;11.84;58.22
76102;SHT30;64830;46.910;6.354;2023-03-23T01:19:31;11.87;58.29
76102;SHT30;64830;46.910;6.354;2023-03-23T01:21:57;11.87;58.39
76102;SHT30;64830;46.910;6.354;2023-03-23T01:24:22;11.87;58.42
76102;SHT30;64830;46.910;6.354;2023-03-23T01:26:48;11.90;58.47
76102;SHT30;64830;46.910;6.354;2023-03-23T01:29:13;11.93;58.47
76102;SHT30;64830;46.910;6.354;2023-03-23T01:31:40;11.94;58.35
76102;SHT30;64830;46.910;6.354;2023-03-23T01:34:07;11.95;58.21
76102;SHT30;64830;46.910;6.354;2023-03-23T01:36:33;12.02;58.24
76102;SHT30;64830;46.910;6.354;2023-03-23T01:39:00;12.02;58.24
76102;SHT30;64830;46.910;6.354;2023-03-23T01:41:26;12.05;58.20
76102;SHT30;64830;46.910;6.354;2023-03-23T01:46:31;12.10;58.21
76102;SHT30;64830;46.910;6.354;2023-03-23T01:49:33;12.11;58.31
76102;SHT30;64830;46.910;6.354;2023-03-23T01:52:02;12.11;58.27
76102;SHT30;64830;46.910;6.354;2023-03-23T01:54:30;12.11;57.92
76102;SHT30;64830;46.910;6.354;2023-03-23T01:57:02;12.14;57.49
76102;SHT30;64830;46.910;6.354;2023-03-23T01:59:30;12.18;56.85
76102;SHT30;64830;46.910;6.354;2023-03-23T02:01:57;12.22;56.58
76102;SHT30;64830;46.910;6.354;2023-03-23T02:04:24;12.25;56.19
76102;SHT30;64830;46.910;6.354;2023-03-23T02:06:51;12.34;56.34
76102;SHT30;64830;46.910;6.354;2023-03-23T02:09:18;12.34;56.42
76102;SHT30;64830;46.910;6.354;2023-03-23T02:11:45;12.36;56.49
76102;SHT30;64830;46.910;6.354;2023-03-23T02:14:11;12.38;56.49
76102;SHT30;64830;46.910;6.354;2023-03-23T02:19:49;12.38;56.77
76102;SHT30;64830;46.910;6.354;2023-03-23T02:22:32;12.35;56.71
76102;SHT30;64830;46.910;6.354;2023-03-23T02:27:50;12.35;55.29
76102;SHT30;64830;46.910;6.354;2023-03-23T02:30:39;12.41;55.13
76102;SHT30;64830;46.910;6.354;2023-03-23T02:38:28;12.48;54.76
76102;SHT30;64830;46.910;6.354;2023-03-23T02:40:56;12.52;54.26
76102;SHT30;64830;46.910;6.354;2023-03-23T02:43:27;12.56;54.20
76102;SHT30;64830;46.910;6.354;2023-03-23T02:45:55;12.63;54.17
76102;SHT30;64830;46.910;6.354;2023-03-23T02:48:24;12.63;53.98
76102;SHT30;64830;46.910;6.354;2023-03-23T02:50:52;12.70;53.97
76102;SHT30;64830;46.910;6.354;2023-03-23T02:53:21;12.70;53.95
76102;SHT30;64830;46.910;6.354;2023-03-23T02:55:49;12.75;53.92
76102;SHT30;64830;46.910;6.354;2023-03-23T02:58:18;12.75;53.68
76102;SHT30;64830;46.910;6.354;2023-03-23T03:00:44;12.76;53.66
76102;SHT30;64830;46.910;6.354;2023-03-23T03:03:16;12.80;53.59
76102;SHT30;64830;46.910;6.354;2023-03-23T03:08:26;12.84;53.42
76102;SHT30;64830;46.910;6.354;2023-03-23T03:11:06;12.86;53.02
76102;SHT30;64830;46.910;6.354;2023-03-23T03:13:53;12.87;53.39
76102;SHT30;64830;46.910;6.354;2023-03-23T03:17:04;12.87;53.20
76102;SHT30;64830;46.910;6.354;2023-03-23T03:19:39;12.88;52.81
76102;SHT30;64830;46.910;6.354;2023-03-23T03:22:06;12.88;53.18
76102;SHT30;64830;46.910;6.354;2023-03-23T03:24:33;12.88;53.39
76102;SHT30;64830;46.910;6.354;2023-03-23T03:27:01;12.90;53.40
76102;SHT30;64830;46.910;6.354;2023-03-23T03:29:32;12.93;53.31
76102;SHT30;64830;46.910;6.354;2023-03-23T03:32:00;12.91;53.35
76102;SHT30;64830;46.910;6.354;2023-03-23T03:34:26;12.93;53.34
76102;SHT30;64830;46.910;6.354;2023-03-23T03:36:54;12.91;52.96
76102;SHT30;64830;46.910;6.354;2023-03-23T03:39:20;12.93;53.25
76102;SHT30;64830;46.910;6.354;2023-03-23T03:41:48;12.94;53.30
76102;SHT30;64830;46.910;6.354;2023-03-23T03:44:14;12.93;53.27
76102;SHT30;64830;46.910;6.354;2023-03-23T03:46:40;12.91;53.30
76102;SHT30;64830;46.910;6.354;2023-03-23T03:49:08;12.91;53.27
76102;SHT30;64830;46.910;6.354;2023-03-23T03:51:34;12.91;53.16
76102;SHT30;64830;46.910;6.354;2023-03-23T03:54:00;12.90;53.33
76102;SHT30;64830;46.910;6.354;2023-03-23T03:56:26;12.88;53.23
76102;SHT30;64830;46.910;6.354;2023-03-23T03:58:53;12.90;53.20
76102;SHT30;64830;46.910;6.354;2023-03-23T04:01:21;12.90;53.04
76102;SHT30;64830;46.910;6.354;2023-03-23T04:03:48;12.87;53.17
76102;SHT30;64830;46.910;6.354;2023-03-23T04:06:13;12.87;53.12
76102;SHT30;64830;46.910;6.354;2023-03-23T04:08:40;12.87;53.16
76102;SHT30;64830;46.910;6.354;2023-03-23T04:11:07;12.87;53.00
76102;SHT30;64830;46.910;6.354;2023-03-23T04:13:34;12.88;53.01
76102;SHT30;64830;46.910;6.354;2023-03-23T04:15:59;12.87;52.92
76102;SHT30;64830;46.910;6.354;2023-03-23T04:18:25;12.84;53.09
76102;SHT30;64830;46.910;6.354;2023-03-23T04:20:51;12.86;53.02
76102;SHT30;64830;46.910;6.354;2023-03-23T04:23:17;12.87;52.98
76102;SHT30;64830;46.910;6.354;2023-03-23T04:25:45;12.86;53.04
76102;SHT30;64830;46.910;6.354;2023-03-23T04:28:12;12.81;53.09
76102;SHT30;64830;46.910;6.354;2023-03-23T04:30:37;12.86;52.90
76102;SHT30;64830;46.910;6.354;2023-03-23T04:33:03;12.86;53.03
76102;SHT30;64830;46.910;6.354;2023-03-23T04:35:30;12.83;52.99
76102;SHT30;64830;46.910;6.354;2023-03-23T04:37:56;12.84;53.00
76102;SHT30;64830;46.910;6.354;2023-03-23T04:40:23;12.83;52.58
76102;SHT30;64830;46.910;6.354;2023-03-23T04:42:48;12.81;52.95
76102;SHT30;64830;46.910;6.354;2023-03-23T04:45:19;12.81;52.86
76102;SHT30;64830;46.910;6.354;2023-03-23T04:47:47;12.80;52.91
76102;SHT30;64830;46.910;6.354;2023-03-23T04:50:20;12.80;53.05
76102;SHT30;64830;46.910;6.354;2023-03-23T04:52:47;12.77;53.10
76102;SHT30;64830;46.910;6.354;2023-03-23T04:55:13;12.77;53.11
76102;SHT30;64830;46.910;6.354;2023-03-23T04:57:39;12.75;53.38
76102;SHT30;64830;46.910;6.354;2023-03-23T05:00:06;12.75;53.44
76102;SHT30;64830;46.910;6.354;2023-03-23T05:02:37;12.70;53.46
76102;SHT30;64830;46.910;6.354;2023-03-23T05:05:06;12.69;53.67
76102;SHT30;64830;46.910;6.354;2023-03-23T05:07:31;12.66;54.36
76102;SHT30;64830;46.910;6.354;2023-03-23T05:09:57;12.59;54.54
76102;SHT30;64830;46.910;6.354;2023-03-23T05:12:22;12.57;54.36
76102;SHT30;64830;46.910;6.354;2023-03-23T05:14:47;12.53;54.26
76102;SHT30;64830;46.910;6.354;2023-03-23T05:17:14;12.53;54.46
76102;SHT30;64830;46.910;6.354;2023-03-23T05:19:42;12.52;54.59
76102;SHT30;64830;46.910;6.354;2023-03-23T05:22:10;12.46;54.55
76102;SHT30;64830;46.910;6.354;2023-03-23T05:24:38;12.43;54.74
76102;SHT30;64830;46.910;6.354;2023-03-23T05:27:03;12.43;54.83
76102;SHT30;64830;46.910;6.354;2023-03-23T05:29:29;12.38;55.03
76102;SHT30;64830;46.910;6.354;2023-03-23T05:31:56;12.36;54.94
76102;SHT30;64830;46.910;6.354;2023-03-23T05:34:26;12.34;55.26
76102;SHT30;64830;46.910;6.354;2023-03-23T05:36:52;12.31;55.39
76102;SHT30;64830;46.910;6.354;2023-03-23T05:39:18;12.31;55.38
76102;SHT30;64830;46.910;6.354;2023-03-23T05:41:44;12.28;56.18
76102;SHT30;64830;46.910;6.354;2023-03-23T05:44:09;12.26;56.45
76102;SHT30;64830;46.910;6.354;2023-03-23T05:46:35;12.25;56.09
76102;SHT30;64830;46.910;6.354;2023-03-23T05:49:00;12.25;57.27
76102;SHT30;64830;46.910;6.354;2023-03-23T05:51:27;12.22;56.95
76102;SHT30;64830;46.910;6.354;2023-03-23T05:53:52;12.20;57.26
76102;SHT30;64830;46.910;6.354;2023-03-23T05:56:18;12.21;56.73
76102;SHT30;64830;46.910;6.354;2023-03-23T05:58:43;12.17;56.54
76102;SHT30;64830;46.910;6.354;2023-03-23T06:01:09;12.20;56.68
76102;SHT30;64830;46.910;6.354;2023-03-23T06:03:34;12.17;56.29
76102;SHT30;64830;46.910;6.354;2023-03-23T06:06:03;12.18;56.23
76102;SHT30;64830;46.910;6.354;2023-03-23T06:08:29;12.15;55.69
76102;SHT30;64830;46.910;6.354;2023-03-23T06:10:54;12.18;55.92
76102;SHT30;64830;46.910;6.354;2023-03-23T06:13:20;12.18;55.71
76102;SHT30;64830;46.910;6.354;2023-03-23T06:15:46;12.20;55.61
76102;SHT30;64830;46.910;6.354;2023-03-23T06:18:12;12.21;55.76
76102;SHT30;64830;46.910;6.354;2023-03-23T06:20:38;12.22;55.30
76102;SHT30;64830;46.910;6.354;2023-03-23T06:23:04;12.26;55.34
76102;SHT30;64830;46.910;6.354;2023-03-23T06:25:30;12.28;55.42
76102;SHT30;64830;46.910;6.354;2023-03-23T06:27:56;12.34;55.43
76102;SHT30;64830;46.910;6.354;2023-03-23T06:30:21;12.35;55.50
76102;SHT30;64830;46.910;6.354;2023-03-23T06:32:47;12.38;55.13
76102;SHT30;64830;46.910;6.354;2023-03-23T06:35:13;12.42;55.00
76102;SHT30;64830;46.910;6.354;2023-03-23T06:37:40;12.45;54.67
76102;SHT30;64830;46.910;6.354;2023-03-23T06:40:06;12.50;54.54
76102;SHT30;64830;46.910;6.354;2023-03-23T06:42:32;12.49;53.99
76102;SHT30;64830;46.910;6.354;2023-03-23T06:44:58;12.56;52.98
76102;SHT30;64830;46.910;6.354;2023-03-23T06:47:29;12.57;53.72
76102;SHT30;64830;46.910;6.354;2023-03-23T06:49:55;12.63;53.53
76102;SHT30;64830;46.910;6.354;2023-03-23T06:52:21;12.64;54.01
76102;SHT30;64830;46.910;6.354;2023-03-23T06:54:48;12.69;53.80
76102;SHT30;64830;46.910;6.354;2023-03-23T06:57:14;12.73;53.90
76102;SHT30;64830;46.910;6.354;2023-03-23T06:59:40;12.73;54.03
76102;SHT30;64830;46.910;6.354;2023-03-23T07:02:11;12.79;54.15
76102;SHT30;64830;46.910;6.354;2023-03-23T07:04:41;12.79;54.23
76102;SHT30;64830;46.910;6.354;2023-03-23T07:07:10;12.83;54.42
76102;SHT30;64830;46.910;6.354;2023-03-23T07:09:37;12.86;54.11
76102;SHT30;64830;46.910;6.354;2023-03-23T07:12:03;12.88;53.91
76102;SHT30;64830;46.910;6.354;2023-03-23T07:14:29;12.93;53.56
76102;SHT30;64830;46.910;6.354;2023-03-23T07:16:54;12.97;53.46
76102;SHT30;64830;46.910;6.354;2023-03-23T07:19:20;13.01;52.93
76102;SHT30;64830;46.910;6.354;2023-03-23T07:21:45;13.05;53.54
76102;SHT30;64830;46.910;6.354;2023-03-23T07:24:12;13.12;53.19
76102;SHT30;64830;46.910;6.354;2023-03-23T07:26:42;13.19;53.04
76102;SHT30;64830;46.910;6.354;2023-03-23T07:29:08;13.26;52.84
76102;SHT30;64830;46.910;6.354;2023-03-23T07:31:34;13.28;52.69
76102;SHT30;64830;46.910;6.354;2023-03-23T07:34:01;13.34;52.68
76102;SHT30;64830;46.910;6.354;2023-03-23T07:36:28;13.38;53.42
76102;SHT30;64830;46.910;6.354;2023-03-23T07:38:53;13.45;53.67
76102;SHT30;64830;46.910;6.354;2023-03-23T07:41:20;13.49;53.73
76102;SHT30;64830;46.910;6.354;2023-03-23T07:43:45;13.58;53.71
76102;SHT30;64830;46.910;6.354;2023-03-23T07:46:11;13.60;53.98
76102;SHT30;64830;46.910;6.354;2023-03-23T07:48:36;13.66;54.00
76102;SHT30;64830;46.910;6.354;2023-03-23T07:51:03;13.67;53.46
76102;SHT30;64830;46.910;6.354;2023-03-23T07:53:28;13.67;52.97
76102;SHT30;64830;46.910;6.354;2023-03-23T07:55:54;13.67;53.86
76102;SHT30;64830;46.910;6.354;2023-03-23T07:58:19;13.69;54.09
76102;SHT30;64830;46.910;6.354;2023-03-23T08:00:48;13.73;54.49
76102;SHT30;64830;46.910;6.354;2023-03-23T08:03:15;13.74;54.39
76102;SHT30;64830;46.910;6.354;2023-03-23T08:05:41;13.76;54.31
76102;SHT30;64830;46.910;6.354;2023-03-23T08:08:08;13.76;53.92
76102;SHT30;64830;46.910;6.354;2023-03-23T08:10:34;13.80;53.85
76102;SHT30;64830;46.910;6.354;2023-03-23T08:13:00;13.83;53.55
76102;SHT30;64830;46.910;6.354;2023-03-23T08:15:26;13.84;53.66
76102;SHT30;64830;46.910;6.354;2023-03-23T08:17:52;13.88;54.05
76102;SHT30;64830;46.910;6.354;2023-03-23T08:20:18;13.94;53.84
76102;SHT30;64830;46.910;6.354;2023-03-23T08:22:48;14.01;53.63
76102;SHT30;64830;46.910;6.354;2023-03-23T08:25:14;14.05;53.09
76102;SHT30;64830;46.910;6.354;2023-03-23T08:27:40;14.14;53.21
76102;SHT30;64830;46.910;6.354;2023-03-23T08:30:17;14.26;52.87
76102;SHT30;64830;46.910;6.354;2023-03-23T08:32:43;14.33;52.58
76102;SHT30;64830;46.910;6.354;2023-03-23T08:35:10;14.43;52.79
76102;SHT30;64830;46.910;6.354;2023-03-23T08:37:37;14.48;51.16
76102;SHT30;64830;46.910;6.354;2023-03-23T08:40:03;14.53;50.99
76102;SHT30;64830;46.910;6.354;2023-03-23T08:42:39;14.55;50.20
76102;SHT30;64830;46.910;6.354;2023-03-23T08:45:06;14.57;50.62
76102;SHT30;64830;46.910;6.354;2023-03-23T08:47:33;14.60;50.81
76102;SHT30;64830;46.910;6.354;2023-03-23T08:49:58;14.62;51.36
76102;SHT30;64830;46.910;6.354;2023-03-23T08:52:24;14.65;51.43
76102;SHT30;64830;46.910;6.354;2023-03-23T08:54:49;14.67;50.77
76102;SHT30;64830;46.910;6.354;2023-03-23T08:57:15;14.67;51.02
76102;SHT30;64830;46.910;6.354;2023-03-23T08:59:41;14.63;51.39
76102;SHT30;64830;46.910;6.354;2023-03-23T09:02:10;14.66;52.11
76102;SHT30;64830;46.910;6.354;2023-03-23T09:04:37;14.66;52.35
76102;SHT30;64830;46.910;6.354;2023-03-23T09:07:02;14.73;52.85
76102;SHT30;64830;46.910;6.354;2023-03-23T09:09:28;14.74;51.74
76102;SHT30;64830;46.910;6.354;2023-03-23T09:11:54;14.80;52.06
76102;SHT30;64830;46.910;6.354;2023-03-23T09:14:19;14.83;51.15
76102;SHT30;64830;46.910;6.354;2023-03-23T09:16:45;14.81;50.86
76102;SHT30;64830;46.910;6.354;2023-03-23T09:19:10;14.81;52.45
76102;SHT30;64830;46.910;6.354;2023-03-23T09:21:37;14.84;52.75
76102;SHT30;64830;46.910;6.354;2023-03-23T09:24:02;14.84;51.79
76102;SHT30;64830;46.910;6.354;2023-03-23T09:26:28;14.84;52.64
76102;SHT30;64830;46.910;6.354;2023-03-23T09:28:53;14.88;53.77
76102;SHT30;64830;46.910;6.354;2023-03-23T09:31:22;14.91;53.88
76102;SHT30;64830;46.910;6.354;2023-03-23T09:33:48;14.97;52.92
76102;SHT30;64830;46.910;6.354;2023-03-23T09:36:17;14.98;52.31
76102;SHT30;64830;46.910;6.354;2023-03-23T09:38:43;15.04;52.58
76102;SHT30;64830;46.910;6.354;2023-03-23T09:41:19;15.12;52.42
76102;SHT30;64830;46.910;6.354;2023-03-23T09:47:04;15.28;49.51
76102;SHT30;64830;46.910;6.354;2023-03-23T09:49:38;15.31;50.01
76102;SHT30;64830;46.910;6.354;2023-03-23T09:52:15;15.36;49.17
76102;SHT30;64830;46.910;6.354;2023-03-23T09:54:47;15.39;50.75
76102;SHT30;64830;46.910;6.354;2023-03-23T09:57:34;15.39;50.68
76102;SHT30;64830;46.910;6.354;2023-03-23T10:00:48;15.36;51.28
76102;SHT30;64830;46.910;6.354;2023-03-23T10:08:00;15.29;49.90
76102;SHT30;64830;46.910;6.354;2023-03-23T10:11:02;15.27;49.77
76102;SHT30;64830;46.910;6.354;2023-03-23T10:16:27;15.24;50.11
76102;SHT30;64830;46.910;6.354;2023-03-23T10:19:20;15.21;50.72
76102;SHT30;64830;46.910;6.354;2023-03-23T10:21:51;15.19;50.88
76102;SHT30;64830;46.910;6.354;2023-03-23T10:24:23;15.15;51.19
76102;SHT30;64830;46.910;6.354;2023-03-23T10:29:52;15.11;51.66
76102;SHT30;64830;46.910;6.354;2023-03-23T10:32:39;14.98;51.62
76102;SHT30;64830;46.910;6.354;2023-03-23T10:35:11;14.95;52.40
76102;SHT30;64830;46.910;6.354;2023-03-23T10:37:42;14.91;53.19
76102;SHT30;64830;46.910;6.354;2023-03-23T10:40:20;14.90;53.72
76102;SHT30;64830;46.910;6.354;2023-03-23T10:42:46;14.85;53.33
76102;SHT30;64830;46.910;6.354;2023-03-23T10:45:21;14.84;52.93
76102;SHT30;64830;46.910;6.354;2023-03-23T10:48:23;14.73;53.70
76102;SHT30;64830;46.910;6.354;2023-03-23T10:50:54;14.69;53.93
76102;SHT30;64830;46.910;6.354;2023-03-23T10:53:29;14.63;53.84
76102;SHT30;64830;46.910;6.354;2023-03-23T10:55:57;14.60;53.48
76102;SHT30;64830;46.910;6.354;2023-03-23T10:58:35;14.50;53.80
76102;SHT30;64830;46.910;6.354;2023-03-23T11:01:03;14.42;53.28
76102;SHT30;64830;46.910;6.354;2023-03-23T11:03:45;14.28;53.62
76102;SHT30;64830;46.910;6.354;2023-03-23T11:06:20;14.20;54.48
76102;SHT30;64830;46.910;6.354;2023-03-23T11:08:52;14.25;55.36
76102;SHT30;64830;46.910;6.354;2023-03-23T11:11:29;14.26;55.49
76102;SHT30;64830;46.910;6.354;2023-03-23T11:14:27;14.35;55.90
76102;SHT30;64830;46.910;6.354;2023-03-23T11:16:58;14.40;54.96
76102;SHT30;64830;46.910;6.354;2023-03-23T11:19:33;14.36;53.21
76102;SHT30;64830;46.910;6.354;2023-03-23T11:24:53;14.60;53.92
76102;SHT30;64830;46.910;6.354;2023-03-23T11:27:20;14.72;52.42
76102;SHT30;64830;46.910;6.354;2023-03-23T11:29:53;14.81;52.65
76102;SHT30;64830;46.910;6.354;2023-03-23T11:32:23;14.94;52.36
76102;SHT30;64830;46.910;6.354;2023-03-23T11:34:54;15.05;51.72
76102;SHT30;64830;46.910;6.354;2023-03-23T11:40:14;15.17;49.08
76102;SHT30;64830;46.910;6.354;2023-03-23T11:50:48;15.18;49.49
76102;SHT30;64830;46.910;6.354;2023-03-23T11:58:17;15.14;48.99
76102;SHT30;64830;46.910;6.354;2023-03-23T12:15:07;15.15;50.45
76102;SHT30;64830;46.910;6.354;2023-03-23T12:26:41;15.12;51.86
76102;SHT30;64830;46.910;6.354;2023-03-23T12:40:06;15.31;52.34
76102;SHT30;64830;46.910;6.354;2023-03-23T12:43:05;15.35;53.44
76102;SHT30;64830;46.910;6.354;2023-03-23T12:48:37;15.38;52.60
76102;SHT30;64830;46.910;6.354;2023-03-23T12:51:27;15.28;53.72
76102;SHT30;64830;46.910;6.354;2023-03-23T12:54:21;15.28;53.77
76102;SHT30;64830;46.910;6.354;2023-03-23T12:56:58;15.28;53.70
76102;SHT30;64830;46.910;6.354;2023-03-23T13:04:46;15.29;52.22
76102;SHT30;64830;46.910;6.354;2023-03-23T13:07:17;15.35;52.30
76102;SHT30;64830;46.910;6.354;2023-03-23T13:12:26;15.66;50.22
76102;SHT30;64830;46.910;6.354;2023-03-23T13:15:29;15.69;51.13
76102;SHT30;64830;46.910;6.354;2023-03-23T13:26:05;15.77;50.15
76102;SHT30;64830;46.910;6.354;2023-03-23T13:29:26;15.83;50.37
76102;SHT30;64830;46.910;6.354;2023-03-23T13:31:38;15.94;50.56
76102;SHT30;64830;46.910;6.354;2023-03-23T13:34:15;15.97;51.17
76102;SHT30;64830;46.910;6.354;2023-03-23T13:37:02;16.01;50.72
76102;SHT30;64830;46.910;6.354;2023-03-23T13:39:53;16.07;49.83
76102;SHT30;64830;46.910;6.354;2023-03-23T13:42:23;16.11;49.73
76102;SHT30;64830;46.910;6.354;2023-03-23T13:52:49;16.09;48.48
76102;SHT30;64830;46.910;6.354;2023-03-23T14:03:13;16.41;48.74
76102;SHT30;64830;46.910;6.354;2023-03-23T14:05:40;16.39;48.48
76102;SHT30;64830;46.910;6.354;2023-03-23T14:10:53;16.41;48.95
76102;SHT30;64830;46.910;6.354;2023-03-23T14:13:35;16.46;48.37
76102;SHT30;64830;46.910;6.354;2023-03-23T14:16:20;16.48;48.52
76102;SHT30;64830;46.910;6.354;2023-03-23T14:18:59;16.46;48.43
76102;SHT30;64830;46.910;6.354;2023-03-23T14:24:12;16.38;48.32
76102;SHT30;64830;46.910;6.354;2023-03-23T14:26:40;16.39;48.82
76102;SHT30;64830;46.910;6.354;2023-03-23T14:29:11;16.38;49.29
76102;SHT30;64830;46.910;6.354;2023-03-23T14:31:38;16.42;48.85
76102;SHT30;64830;46.910;6.354;2023-03-23T14:34:13;16.41;49.04
76102;SHT30;64830;46.910;6.354;2023-03-23T14:36:39;16.42;48.95
76102;SHT30;64830;46.910;6.354;2023-03-23T14:41:51;16.41;49.08
76102;SHT30;64830;46.910;6.354;2023-03-23T14:44:29;16.39;49.15
76102;SHT30;64830;46.910;6.354;2023-03-23T14:46:57;16.36;49.32
76102;SHT30;64830;46.910;6.354;2023-03-23T14:49:39;16.38;48.94
76102;SHT30;64830;46.910;6.354;2023-03-23T14:52:12;16.32;48.30
76102;SHT30;64830;46.910;6.354;2023-03-23T14:54:38;16.29;49.40
76102;SHT30;64830;46.910;6.354;2023-03-23T14:57:33;16.25;49.17
76102;SHT30;64830;46.910;6.354;2023-03-23T14:59:58;16.24;49.18
76102;SHT30;64830;46.910;6.354;2023-03-23T15:02:28;16.17;49.06
76102;SHT30;64830;46.910;6.354;2023-03-23T15:05:17;16.21;49.64
76102;SHT30;64830;46.910;6.354;2023-03-23T15:07:47;16.24;49.67
76102;SHT30;64830;46.910;6.354;2023-03-23T15:10:17;16.22;48.78
76102;SHT30;64830;46.910;6.354;2023-03-23T15:12:46;16.18;49.27
76102;SHT30;64830;46.910;6.354;2023-03-23T15:15:28;16.17;49.43
76102;SHT30;64830;46.910;6.354;2023-03-23T15:17:55;16.18;49.57
76102;SHT30;64830;46.910;6.354;2023-03-23T15:20:25;16.17;49.64
76102;SHT30;64830;46.910;6.354;2023-03-23T15:22:51;16.17;49.84
76102;SHT30;64830;46.910;6.354;2023-03-23T15:25:33;16.17;49.89
76102;SHT30;64830;46.910;6.354;2023-03-23T15:28:14;16.17;49.14
76102;SHT30;64830;46.910;6.354;2023-03-23T15:30:51;16.18;49.33
76102;SHT30;64830;46.910;6.354;2023-03-23T15:33:18;16.17;49.74
76102;SHT30;64830;46.910;6.354;2023-03-23T15:35:49;16.18;49.95
76102;SHT30;64830;46.910;6.354;2023-03-23T15:40:56;16.12;49.95
76102;SHT30;64830;46.910;6.354;2023-03-23T15:43:31;16.12;50.72
76102;SHT30;64830;46.910;6.354;2023-03-23T15:48:29;16.19;50.56
76102;SHT30;64830;46.910;6.354;2023-03-23T15:50:55;16.22;50.73
76102;SHT30;64830;46.910;6.354;2023-03-23T15:53:33;16.22;50.65
76102;SHT30;64830;46.910;6.354;2023-03-23T15:56:04;16.26;51.13
76102;SHT30;64830;46.910;6.354;2023-03-23T15:58:30;16.25;50.90
76102;SHT30;64830;46.910;6.354;2023-03-23T16:00:57;16.22;50.63
76102;SHT30;64830;46.910;6.354;2023-03-23T16:03:26;16.15;51.02
76102;SHT30;64830;46.910;6.354;2023-03-23T16:05:57;16.18;51.12
76102;SHT30;64830;46.910;6.354;2023-03-23T16:08:24;16.11;51.38
76102;SHT30;64830;46.910;6.354;2023-03-23T16:10:50;16.11;51.36
76102;SHT30;64830;46.910;6.354;2023-03-23T16:13:16;16.12;51.27
76102;SHT30;64830;46.910;6.354;2023-03-23T16:15:42;16.14;51.24
76102;SHT30;64830;46.910;6.354;2023-03-23T16:18:19;16.12;51.08
76102;SHT30;64830;46.910;6.354;2023-03-23T16:20:46;16.07;50.74
76102;SHT30;64830;46.910;6.354;2023-03-23T16:23:11;16.04;50.92
76102;SHT30;64830;46.910;6.354;2023-03-23T16:25:37;16.01;51.26
76102;SHT30;64830;46.910;6.354;2023-03-23T16:28:02;16.00;51.43
76102;SHT30;64830;46.910;6.354;2023-03-23T16:30:28;15.98;51.20
76102;SHT30;64830;46.910;6.354;2023-03-23T16:32:54;15.97;51.51
76102;SHT30;64830;46.910;6.354;2023-03-23T16:35:20;15.97;51.30
76102;SHT30;64830;46.910;6.354;2023-03-23T16:37:47;15.91;51.65
76102;SHT30;64830;46.910;6.354;2023-03-23T16:40:14;15.90;51.51
76102;SHT30;64830;46.910;6.354;2023-03-23T16:42:40;15.87;51.60
76102;SHT30;64830;46.910;6.354;2023-03-23T16:45:06;15.84;51.70
76102;SHT30;64830;46.910;6.354;2023-03-23T16:47:31;15.83;52.18
76102;SHT30;64830;46.910;6.354;2023-03-23T16:49:57;15.80;52.08
76102;SHT30;64830;46.910;6.354;2023-03-23T16:52:22;15.73;52.09
76102;SHT30;64830;46.910;6.354;2023-03-23T16:54:48;15.70;52.27
76102;SHT30;64830;46.910;6.354;2023-03-23T16:57:13;15.69;52.37
76102;SHT30;64830;46.910;6.354;2023-03-23T16:59:38;15.64;52.24
76102;SHT30;64830;46.910;6.354;2023-03-23T17:02:04;15.64;52.36
76102;SHT30;64830;46.910;6.354;2023-03-23T17:04:30;15.63;52.44
76102;SHT30;64830;46.910;6.354;2023-03-23T17:06:56;15.59;52.50
76102;SHT30;64830;46.910;6.354;2023-03-23T17:09:25;15.53;52.64
76102;SHT30;64830;46.910;6.354;2023-03-23T17:11:52;15.47;52.42
76102;SHT30;64830;46.910;6.354;2023-03-23T17:14:17;15.43;52.49
76102;SHT30;64830;46.910;6.354;2023-03-23T17:16:43;15.38;52.51
76102;SHT30;64830;46.910;6.354;2023-03-23T17:19:08;15.34;52.59
76102;SHT30;64830;46.910;6.354;2023-03-23T17:21:34;15.29;52.61
76102;SHT30;64830;46.910;6.354;2023-03-23T17:24:00;15.21;52.69
76102;SHT30;64830;46.910;6.354;2023-03-23T17:26:26;15.15;52.56
76102;SHT30;64830;46.910;6.354;2023-03-23T17:28:51;15.10;52.65
76102;SHT30;64830;46.910;6.354;2023-03-23T17:31:17;15.05;52.93
76102;SHT30;64830;46.910;6.354;2023-03-23T17:33:42;15.02;52.81
76102;SHT30;64830;46.910;6.354;2023-03-23T17:36:08;14.94;52.94
76102;SHT30;64830;46.910;6.354;2023-03-23T17:38:33;14.91;52.79
76102;SHT30;64830;46.910;6.354;2023-03-23T17:41:00;14.85;52.85
76102;SHT30;64830;46.910;6.354;2023-03-23T17:43:26;14.84;52.90
76102;SHT30;64830;46.910;6.354;2023-03-23T17:45:52;14.80;53.06
76102;SHT30;64830;46.910;6.354;2023-03-23T17:48:17;14.74;53.12
76102;SHT30;64830;46.910;6.354;2023-03-23T17:50:46;14.73;52.69
76102;SHT30;64830;46.910;6.354;2023-03-23T17:53:12;14.72;52.83
76102;SHT30;64830;46.910;6.354;2023-03-23T17:55:37;14.72;52.81